Terminal Aerodrome Forecast
Issued by NWS

Home | Current Version | Previous Version | Text Only | Print | Product List | Glossary On
Versions: 1 2 3 4 5 6 7 8 9 10 11 12 13 14 15 16 17 18 19 20 21 22
000
FTUS45 KTFX 040543
TAFHVR
TAF
KHVR 040543Z 0406/0506 22010KT P6SM SCT150
     FM041200 21015KT P6SM BKN060
     FM041800 21016G24KT P6SM OVC050 PROB30 0421/0424 4SM -SN OVC025
     FM050000 29012KT P6SM OVC035 PROB30 0500/0503 4SM -SN OVC007
     FM050300 32015KT P6SM BKN015 PROB30 0503/0506 4SM -SN OVC007=

USA.gov is the U.S. government's official web portal to all federal, state and local government web resources and services.